createdAt,value
2023-02-14T00:01:24.977Z,35.85
2023-02-14T00:03:51.827Z,39.25
2023-02-14T00:06:18.478Z,39.97
2023-02-14T00:08:45.684Z,38.05
2023-02-14T00:11:13.998Z,38.28
2023-02-14T00:14:05.258Z,38.28
2023-02-14T00:16:32.879Z,40.55
2023-02-14T00:19:05.690Z,37.03
2023-02-14T00:21:37.116Z,42.47
2023-02-14T00:24:10.568Z,37.70
2023-02-14T00:26:40.202Z,38.97
2023-02-14T00:29:08.984Z,40.95
2023-02-14T00:31:38.956Z,40.30
2023-02-14T00:34:06.947Z,38.33
2023-02-14T00:36:34.380Z,37.88
2023-02-14T00:39:04.052Z,39.35
2023-02-14T00:41:31.427Z,39.38
2023-02-14T00:46:28.189Z,38.35
2023-02-14T00:48:55.084Z,38.65
2023-02-14T00:51:22.762Z,37.28
2023-02-14T00:53:50.894Z,36.72
2023-02-14T00:56:21.798Z,39.25
2023-02-14T00:58:48.948Z,36.88
2023-02-14T01:01:20.135Z,42.10
2023-02-14T01:03:50.037Z,36.80
2023-02-14T01:06:17.020Z,38.88
2023-02-14T01:08:43.966Z,37.95
2023-02-14T01:11:16.493Z,39.58
2023-02-14T01:13:44.577Z,46.45
2023-02-14T01:16:15.632Z,40.15
2023-02-14T01:18:43.758Z,40.65
2023-02-14T01:21:19.547Z,40.00
2023-02-14T01:23:47.612Z,41.20
2023-02-14T01:26:15.722Z,42.10
2023-02-14T01:28:46.186Z,39.63
2023-02-14T01:31:16.339Z,40.03
2023-02-14T01:33:44.524Z,38.63
2023-02-14T01:36:24.071Z,41.45
2023-02-14T01:41:25.128Z,37.58
2023-02-14T01:46:30.434Z,39.25
2023-02-14T01:49:18.733Z,40.55
2023-02-14T01:52:03.952Z,42.63
2023-02-14T01:54:33.655Z,38.83
2023-02-14T01:57:05.310Z,42.17
2023-02-14T01:59:36.308Z,41.45
2023-02-14T02:02:03.501Z,41.10
2023-02-14T02:04:34.946Z,41.50
2023-02-14T02:07:07.216Z,41.88
2023-02-14T02:09:38.719Z,40.10
2023-02-14T02:12:08.175Z,41.60
2023-02-14T02:14:35.300Z,45.67
2023-02-14T02:17:34.085Z,42.40
2023-02-14T02:20:06.670Z,46.85
2023-02-14T02:25:36.062Z,41.50
2023-02-14T02:31:21.847Z,43.72
2023-02-14T02:34:13.569Z,46.67
2023-02-14T02:36:50.975Z,44.20
2023-02-14T02:39:41.980Z,43.70
2023-02-14T02:45:08.985Z,43.92
2023-02-14T02:47:48.171Z,44.13
2023-02-14T02:50:44.135Z,46.63
2023-02-14T02:53:38.693Z,45.63
2023-02-14T02:56:29.953Z,44.83
2023-02-14T02:59:33.497Z,43.92
2023-02-14T03:04:46.564Z,41.33
2023-02-14T03:07:32.482Z,45.10
2023-02-14T03:10:01.983Z,46.25
2023-02-14T03:12:34.425Z,45.97
2023-02-14T03:15:10.866Z,45.45
2023-02-14T03:18:18.678Z,45.53
2023-02-14T03:21:22.341Z,42.83
2023-02-14T03:26:49.591Z,39.22
2023-02-14T03:29:40.042Z,42.60
2023-02-14T03:32:30.193Z,45.80
2023-02-14T03:35:09.707Z,41.60
2023-02-14T03:37:54.882Z,43.53
2023-02-14T03:40:27.723Z,43.22
2023-02-14T03:43:19.516Z,45.40
2023-02-14T03:45:56.125Z,40.65
2023-02-14T03:48:26.015Z,42.60
2023-02-14T03:50:54.184Z,42.05
2023-02-14T03:53:26.302Z,43.47
2023-02-14T03:56:37.922Z,40.63
2023-02-14T03:59:14.748Z,39.85
2023-02-14T04:02:06.218Z,41.55
2023-02-14T04:04:36.219Z,44.13
2023-02-14T04:07:15.807Z,44.55
2023-02-14T04:09:43.858Z,45.53
2023-02-14T04:12:11.313Z,41.22
2023-02-14T04:14:38.543Z,44.30
2023-02-14T04:17:25.536Z,44.92
2023-02-14T04:19:52.443Z,46.80
2023-02-14T04:22:19.146Z,44.47
2023-02-14T04:24:46.277Z,47.63
2023-02-14T04:27:13.376Z,47.13
2023-02-14T04:29:45.758Z,48.55
2023-02-14T04:32:15.949Z,50.15
2023-02-14T04:34:42.925Z,45.25
2023-02-14T04:37:09.913Z,45.55
2023-02-14T04:39:37.005Z,47.25
2023-02-14T04:42:04.889Z,52.63
2023-02-14T04:44:34.149Z,44.72
2023-02-14T04:47:01.534Z,42.20
2023-02-14T04:49:28.378Z,44.95
2023-02-14T04:51:55.143Z,47.05
2023-02-14T04:54:21.998Z,48.15
2023-02-14T04:56:48.739Z,47.78
2023-02-14T04:59:15.891Z,48.38
2023-02-14T05:01:42.832Z,49.97
2023-02-14T05:04:10.149Z,49.28
2023-02-14T05:06:37.405Z,47.25
2023-02-14T05:09:04.408Z,49.50
2023-02-14T05:11:32.127Z,49.72
2023-02-14T05:16:25.912Z,48.53
2023-02-14T05:18:52.551Z,46.28
2023-02-14T05:21:19.327Z,46.08
2023-02-14T05:23:45.949Z,46.85
2023-02-14T05:26:12.889Z,44.90
2023-02-14T05:28:40.986Z,45.10
2023-02-14T05:31:08.672Z,49.63
2023-02-14T05:33:35.900Z,46.65
2023-02-14T05:36:02.959Z,48.72
2023-02-14T05:38:30.589Z,48.30
2023-02-14T05:40:57.508Z,47.00
2023-02-14T05:43:24.350Z,45.90
2023-02-14T05:45:51.251Z,54.85
2023-02-14T05:48:18.100Z,49.47
2023-02-14T05:50:45.706Z,47.50
2023-02-14T05:53:13.177Z,50.70
2023-02-14T05:58:07.481Z,51.60
2023-02-14T06:03:05.607Z,52.25
2023-02-14T06:05:32.625Z,50.17
2023-02-14T06:08:04.884Z,48.25
2023-02-14T06:10:31.943Z,53.42
2023-02-14T06:15:31.675Z,52.95
2023-02-14T06:20:27.927Z,45.65
2023-02-14T06:22:55.168Z,48.60
2023-02-14T06:25:23.842Z,47.40
2023-02-14T06:27:55.305Z,49.38
2023-02-14T06:30:22.615Z,51.35
2023-02-14T06:32:49.869Z,51.20
2023-02-14T06:35:17.362Z,49.47
2023-02-14T06:37:46.966Z,44.08
2023-02-14T06:40:14.311Z,50.42
2023-02-14T06:42:41.027Z,51.97
2023-02-14T06:45:08.180Z,49.33
2023-02-14T06:47:35.370Z,45.17
2023-02-14T06:50:06.055Z,50.22
2023-02-14T06:52:33.794Z,52.35
2023-02-14T06:55:05.981Z,52.55
2023-02-14T06:57:35.601Z,49.67
2023-02-14T07:00:07.598Z,47.88
2023-02-14T07:02:39.936Z,45.63
2023-02-14T07:05:10.789Z,49.63
2023-02-14T07:07:45.125Z,49.10
2023-02-14T07:10:18.404Z,48.83
2023-02-14T07:12:46.420Z,51.40
2023-02-14T07:15:13.701Z,48.65
2023-02-14T07:17:40.692Z,49.80
2023-02-14T07:20:08.354Z,48.85
2023-02-14T07:22:36.688Z,45.92
2023-02-14T07:25:04.599Z,44.38
2023-02-14T07:27:31.085Z,53.15
2023-02-14T07:29:57.991Z,49.20
2023-02-14T07:32:24.682Z,51.72
2023-02-14T07:34:52.285Z,52.35
2023-02-14T07:37:19.176Z,49.83
2023-02-14T07:39:46.511Z,46.05
2023-02-14T07:42:13.213Z,45.97
2023-02-14T07:44:40.195Z,45.13
2023-02-14T07:47:08.113Z,48.75
2023-02-14T07:49:39.187Z,50.25
2023-02-14T07:52:09.729Z,46.20
2023-02-14T07:54:38.754Z,49.55
2023-02-14T07:57:06.132Z,47.83
2023-02-14T07:59:32.661Z,47.75
2023-02-14T08:04:28.711Z,55.38
2023-02-14T08:06:55.319Z,47.13
2023-02-14T08:09:24.977Z,44.50
2023-02-14T08:12:15.709Z,45.40
2023-02-14T08:14:43.439Z,41.97
2023-02-14T08:17:11.372Z,42.90
2023-02-14T08:19:38.084Z,44.15
2023-02-14T08:24:31.942Z,43.20
2023-02-14T08:29:33.594Z,41.58
2023-02-14T08:32:00.878Z,45.97
2023-02-14T08:34:28.838Z,40.50
2023-02-14T08:39:23.201Z,43.67
2023-02-14T08:41:53.835Z,40.13
2023-02-14T08:44:21.059Z,39.70
2023-02-14T08:46:48.140Z,41.50
2023-02-14T08:49:15.998Z,40.10
2023-02-14T08:51:43.540Z,47.35
2023-02-14T08:54:10.797Z,46.75
2023-02-14T08:56:38.614Z,44.95
2023-02-14T08:59:06.090Z,46.63
2023-02-14T09:01:33.282Z,41.65
2023-02-14T09:04:00.440Z,43.42
2023-02-14T09:06:27.165Z,45.30
2023-02-14T09:08:55.269Z,45.28
2023-02-14T09:11:24.820Z,49.70
2023-02-14T09:13:55.764Z,44.35
2023-02-14T09:16:26.523Z,45.47
2023-02-14T09:18:54.982Z,40.15
2023-02-14T09:21:27.162Z,45.35
2023-02-14T09:23:54.586Z,44.03
2023-02-14T09:26:24.719Z,47.05
2023-02-14T09:28:52.008Z,37.22
2023-02-14T09:31:21.498Z,41.17
2023-02-14T09:36:53.259Z,38.55
2023-02-14T09:39:22.753Z,39.85
2023-02-14T09:42:42.179Z,48.13
2023-02-14T09:45:22.559Z,45.38
2023-02-14T09:48:03.965Z,44.50
2023-02-14T09:50:45.676Z,40.33
2023-02-14T09:53:33.457Z,37.28
2023-02-14T09:56:04.259Z,42.00
2023-02-14T09:58:46.031Z,39.92
2023-02-14T10:01:23.635Z,38.28
2023-02-14T10:04:24.861Z,38.85
2023-02-14T10:06:57.045Z,38.53
2023-02-14T10:09:40.791Z,45.03
2023-02-14T10:12:20.108Z,39.25
2023-02-14T10:14:50.721Z,41.35
2023-02-14T10:17:30.890Z,40.67
2023-02-14T10:20:02.296Z,37.90
2023-02-14T10:25:31.325Z,42.10
2023-02-14T10:28:02.326Z,36.35
2023-02-14T10:30:39.241Z,38.40
2023-02-14T10:33:17.827Z,36.88
2023-02-14T10:35:56.184Z,39.15
2023-02-14T10:38:45.264Z,36.75
2023-02-14T10:41:27.596Z,35.28
2023-02-14T10:44:03.553Z,39.22
2023-02-14T10:46:41.144Z,36.03
2023-02-14T10:49:30.544Z,34.53
2023-02-14T10:52:09.212Z,36.08
2023-02-14T10:54:46.341Z,37.85
2023-02-14T10:57:34.441Z,40.03
2023-02-14T11:00:07.011Z,35.42
2023-02-14T11:02:41.605Z,36.83
2023-02-14T11:05:28.111Z,34.30
2023-02-14T11:07:56.564Z,37.78
2023-02-14T11:10:28.299Z,33.70
2023-02-14T11:15:35.950Z,33.20
2023-02-14T11:18:10.806Z,39.60
2023-02-14T11:20:37.607Z,35.15
2023-02-14T11:23:19.360Z,36.03
2023-02-14T11:25:55.728Z,34.72
2023-02-14T11:28:23.581Z,36.90
2023-02-14T11:30:52.077Z,35.83
2023-02-14T11:33:43.482Z,37.25
2023-02-14T11:36:14.628Z,30.25
2023-02-14T11:38:46.101Z,33.08
2023-02-14T11:41:16.307Z,31.58
2023-02-14T11:43:45.303Z,32.70
2023-02-14T11:46:26.504Z,32.80
2023-02-14T11:49:11.036Z,31.83
2023-02-14T11:56:58.043Z,29.42
2023-02-14T11:59:33.700Z,29.33
2023-02-14T12:02:19.670Z,29.33
2023-02-14T12:04:50.317Z,31.42
2023-02-14T12:07:18.712Z,29.45
2023-02-14T12:09:47.686Z,30.48
2023-02-14T12:12:26.639Z,34.95
2023-02-14T12:15:16.421Z,30.98
2023-02-14T12:17:47.293Z,28.13
2023-02-14T12:20:28.238Z,30.08
2023-02-14T12:23:17.015Z,26.15
2023-02-14T12:25:52.793Z,28.50
2023-02-14T12:28:26.041Z,26.92
2023-02-14T12:30:52.747Z,25.73
2023-02-14T12:33:31.309Z,31.13
2023-02-14T12:36:10.706Z,27.02
2023-02-14T12:38:52.341Z,27.50
2023-02-14T12:41:30.501Z,24.67
2023-02-14T12:44:21.426Z,25.13
2023-02-14T12:47:29.045Z,26.08
2023-02-14T12:52:51.540Z,29.00
2023-02-14T12:55:41.404Z,26.30
2023-02-14T12:58:26.238Z,25.80
2023-02-14T13:01:43.919Z,25.30
2023-02-14T13:04:40.589Z,27.40
2023-02-14T13:07:26.101Z,25.88
2023-02-14T13:10:07.610Z,27.13
2023-02-14T13:16:12.692Z,26.45
2023-02-14T13:18:57.719Z,30.10
2023-02-14T13:21:33.768Z,22.23
2023-02-14T13:24:25.959Z,27.17
2023-02-14T13:29:46.044Z,23.73
2023-02-14T13:32:20.145Z,27.67
2023-02-14T13:34:50.691Z,25.60
2023-02-14T13:37:24.430Z,25.10
2023-02-14T13:40:17.068Z,23.90
2023-02-14T13:42:53.804Z,24.23
2023-02-14T13:45:35.829Z,21.83
2023-02-14T13:48:10.893Z,25.15
2023-02-14T13:50:50.321Z,22.15
2023-02-14T13:53:43.301Z,21.38
2023-02-14T13:56:12.812Z,23.27
2023-02-14T13:58:56.052Z,33.42
2023-02-14T14:01:51.484Z,21.60
2023-02-14T14:07:26.311Z,24.33
2023-02-14T14:09:56.110Z,26.35
2023-02-14T14:12:28.836Z,22.15
2023-02-14T14:22:57.070Z,22.27
2023-02-14T14:25:50.487Z,22.10
2023-02-14T14:30:50.625Z,19.38
2023-02-14T14:33:33.136Z,19.58
2023-02-14T14:36:10.476Z,22.67
2023-02-14T14:38:51.691Z,23.73
2023-02-14T14:41:18.831Z,23.75
2023-02-14T14:43:50.852Z,23.35
2023-02-14T14:46:18.850Z,22.83
2023-02-14T14:48:51.652Z,22.77
2023-02-14T14:51:33.417Z,24.83
2023-02-14T14:54:10.760Z,22.98
2023-02-14T14:56:45.645Z,23.33
2023-02-14T14:59:30.368Z,23.10
2023-02-14T15:01:57.825Z,22.73
2023-02-14T15:04:29.940Z,22.88
2023-02-14T15:07:16.827Z,21.42
2023-02-14T15:09:50.202Z,19.42
2023-02-14T15:12:41.449Z,21.65
2023-02-14T15:15:14.540Z,20.92
2023-02-14T15:17:45.606Z,20.48
2023-02-14T15:25:27.291Z,21.63
2023-02-14T15:30:31.050Z,20.67
2023-02-14T15:35:30.828Z,20.70
2023-02-14T15:40:37.606Z,20.40
2023-02-14T15:43:19.705Z,19.65
2023-02-14T15:45:49.917Z,21.52
2023-02-14T15:48:26.153Z,27.85
2023-02-14T15:53:43.311Z,18.15
2023-02-14T15:56:21.176Z,24.55
2023-02-14T16:01:21.777Z,24.23
2023-02-14T16:06:39.856Z,19.77
2023-02-14T16:09:23.645Z,21.20
2023-02-14T16:11:51.232Z,21.75
2023-02-14T16:14:30.507Z,21.23
2023-02-14T16:19:46.180Z,21.08
2023-02-14T16:22:32.342Z,21.58
2023-02-14T16:30:25.444Z,21.25
2023-02-14T16:32:54.347Z,22.70
2023-02-14T16:35:24.796Z,25.10
2023-02-14T16:38:00.390Z,24.13
2023-02-14T16:40:42.147Z,26.63
2023-02-14T16:45:44.008Z,23.50
2023-02-14T16:48:11.528Z,24.02
2023-02-14T16:50:41.175Z,22.17
2023-02-14T16:53:16.860Z,22.27
2023-02-14T16:55:44.222Z,33.38
2023-02-14T17:00:39.615Z,22.95
2023-02-14T17:05:40.032Z,25.50
2023-02-14T17:08:10.429Z,25.50
2023-02-14T17:10:39.120Z,26.27
2023-02-14T17:15:34.409Z,25.40
2023-02-14T17:18:04.973Z,23.27
2023-02-14T17:22:58.510Z,25.27
2023-02-14T17:25:25.928Z,25.50
2023-02-14T17:27:52.802Z,25.98
2023-02-14T17:32:46.168Z,27.08
2023-02-14T17:37:44.408Z,28.55
2023-02-14T17:42:39.447Z,30.83
2023-02-14T17:47:34.368Z,28.48
2023-02-14T17:50:03.369Z,24.45
2023-02-14T17:52:30.248Z,24.55
2023-02-14T17:54:57.042Z,21.90
2023-02-14T17:57:24.098Z,25.85
2023-02-14T17:59:51.105Z,25.17
2023-02-14T18:04:49.031Z,23.33
2023-02-14T18:07:16.160Z,21.77
2023-02-14T18:09:43.042Z,23.67
2023-02-14T18:12:14.693Z,22.65
2023-02-14T18:14:41.755Z,22.83
2023-02-14T18:17:08.263Z,25.55
2023-02-14T18:19:34.870Z,26.75
2023-02-14T18:22:01.455Z,28.25
2023-02-14T18:24:28.056Z,42.72
2023-02-14T18:26:55.449Z,26.98
2023-02-14T18:29:22.773Z,29.83
2023-02-14T18:31:49.497Z,34.65
2023-02-14T18:36:42.603Z,28.05
2023-02-14T18:39:09.895Z,32.45
2023-02-14T18:41:36.849Z,31.35
2023-02-14T18:44:03.910Z,29.25
2023-02-14T18:46:33.856Z,34.08
2023-02-14T18:49:00.477Z,35.42
2023-02-14T18:51:30.657Z,35.50
2023-02-14T18:53:59.150Z,35.90
2023-02-14T18:56:28.956Z,39.88
2023-02-14T18:59:01.545Z,35.85
2023-02-14T19:01:30.900Z,35.08
2023-02-14T19:04:02.294Z,32.00
2023-02-14T19:06:31.299Z,37.30
2023-02-14T19:08:58.045Z,33.03
2023-02-14T19:11:28.669Z,40.78
2023-02-14T19:13:56.975Z,37.20
2023-02-14T19:16:33.145Z,34.33
2023-02-14T19:19:02.509Z,35.67
2023-02-14T19:21:31.709Z,34.70
2023-02-14T19:23:58.627Z,33.55
2023-02-14T19:26:32.859Z,36.67
2023-02-14T19:29:02.602Z,48.28
2023-02-14T19:31:30.398Z,33.35
2023-02-14T19:33:57.154Z,49.35
2023-02-14T19:36:24.079Z,42.30
2023-02-14T19:41:26.119Z,49.55
2023-02-14T19:46:22.543Z,30.88
2023-02-14T19:48:49.764Z,33.05
2023-02-14T19:51:29.196Z,65.47
2023-02-14T19:53:57.778Z,45.75
2023-02-14T19:56:29.715Z,30.95
2023-02-14T20:01:30.416Z,32.35
2023-02-14T20:06:25.625Z,37.95
2023-02-14T20:08:53.154Z,33.33
2023-02-14T20:11:28.317Z,35.15
2023-02-14T20:13:55.341Z,34.70
2023-02-14T20:16:23.352Z,34.08
2023-02-14T20:18:50.053Z,33.53
2023-02-14T20:21:19.112Z,33.08
2023-02-14T20:23:45.766Z,37.20
2023-02-14T20:26:14.755Z,32.08
2023-02-14T20:28:41.729Z,31.67
2023-02-14T20:33:40.751Z,38.15
2023-02-14T20:36:08.822Z,34.28
2023-02-14T20:38:35.476Z,40.10
2023-02-14T20:41:10.767Z,34.17
2023-02-14T20:43:38.546Z,36.70
2023-02-14T20:48:34.528Z,35.47
2023-02-14T20:51:10.570Z,32.05
2023-02-14T20:53:37.173Z,30.73
2023-02-14T20:56:03.967Z,25.80
2023-02-14T20:58:31.367Z,27.77
2023-02-14T21:01:06.433Z,28.33
2023-02-14T21:03:35.679Z,30.13
2023-02-14T21:08:37.539Z,29.02
2023-02-14T21:11:06.286Z,26.13
2023-02-14T21:13:33.378Z,32.45
2023-02-14T21:16:03.737Z,26.23
2023-02-14T21:18:30.842Z,25.23
2023-02-14T21:21:08.225Z,25.35
2023-02-14T21:23:34.912Z,29.38
2023-02-14T21:26:01.510Z,24.95
2023-02-14T21:28:28.195Z,25.90
2023-02-14T21:33:43.614Z,24.77
2023-02-14T21:36:12.928Z,24.30
2023-02-14T21:38:40.103Z,23.40
2023-02-14T21:43:41.437Z,26.05
2023-02-14T21:46:14.584Z,25.92
2023-02-14T21:48:59.884Z,23.38
2023-02-14T21:51:27.648Z,25.42
2023-02-14T21:53:55.550Z,24.00
2023-02-14T21:56:23.844Z,25.40
2023-02-14T21:58:52.922Z,20.55
2023-02-14T22:01:44.085Z,23.98
2023-02-14T22:04:12.851Z,22.55
2023-02-14T22:06:41.092Z,22.85
2023-02-14T22:09:08.073Z,23.88
2023-02-14T22:11:34.802Z,20.05
2023-02-14T22:14:01.819Z,18.65
2023-02-14T22:16:28.450Z,22.90
2023-02-14T22:18:56.487Z,20.80
2023-02-14T22:21:25.358Z,23.65
2023-02-14T22:23:52.365Z,21.38
2023-02-14T22:26:26.027Z,24.85
2023-02-14T22:28:56.765Z,22.42
2023-02-14T22:31:24.997Z,24.10
2023-02-14T22:33:51.829Z,23.60
2023-02-14T22:36:18.598Z,18.83
2023-02-14T22:38:46.047Z,25.33
2023-02-14T22:41:15.217Z,19.65
2023-02-14T22:43:42.799Z,20.90
2023-02-14T22:48:39.740Z,20.15
2023-02-14T22:53:43.602Z,20.92
2023-02-14T22:56:15.497Z,20.42
2023-02-14T22:58:42.940Z,19.30
2023-02-14T23:01:20.002Z,19.63
2023-02-14T23:03:48.195Z,19.98
2023-02-14T23:06:15.644Z,22.95
2023-02-14T23:08:44.177Z,18.45
2023-02-14T23:11:23.133Z,19.88
2023-02-14T23:14:08.657Z,22.33
2023-02-14T23:16:53.781Z,17.77
2023-02-14T23:19:41.810Z,21.23
2023-02-14T23:22:10.037Z,21.88
2023-02-14T23:24:37.633Z,18.27
2023-02-14T23:27:05.625Z,20.23
2023-02-14T23:32:00.173Z,19.13
2023-02-14T23:34:29.188Z,14.45
2023-02-14T23:36:56.075Z,15.82
2023-02-14T23:39:23.483Z,15.45
2023-02-14T23:41:50.321Z,15.20
2023-02-14T23:44:24.674Z,20.98
2023-02-14T23:47:00.403Z,17.40
2023-02-14T23:49:27.762Z,18.83
2023-02-14T23:51:55.875Z,18.35
2023-02-14T23:54:23.948Z,19.17
2023-02-14T23:59:20.109Z,18.63
